EEKA

Kärdla Airport

Kärdla, Estonia
METAR EEKA 150250Z 11005KT 9999 BKN006 OVC011 16/15 Q1007
Observed Flight Rules
Aug-15 @ 02:50 UTC (46 minutes ago) Instrument Flight Rules
Wind Visibility Clouds
110° at 5 knots 10,000+ meters
  • Broken at 600' AGL
  • Overcast at 1,100' AGL
Temperatures Readings
Current 16°C / 61°F
Dewpoint 15°C / 59°F
Humidity 94%
Altimeter 29.73" Hg
Pressure 1007 hPa
Elevation 4
METAR EEKA 150250Z 11005KT 9999 BKN006 OVC011 16/15 Q1007
Observed Flight Rules
Aug-15 @ 02:50 UTC
(46 minutes ago)
IFR
Wind Visibility
110° at 5 knots 10,000+ meters
Clouds
  • Broken at 600' AGL
  • Overcast at 1,100' AGL
Temperature Dewpoint
16°C / 61°F 15°C / 59°F
Humidity Altimeter Pressure
94% 29.73" Hg 1007 hPa